Wyocena, WI (53969)

6:41 AM CST on February 09, 2016 (GMT -0600)
APRSWXNET | | Change Station
CLOSE
Current Station
Personal Weather Station
Location: Cambria, WI
Elevation: 944 ft
Nearby Weather Stations

Elev 944 ft 43.54 °N, 89.11 °W | Updated 21 minutes ago

Overcast
Overcast
10 °F
Feels Like -5 °F
N
12
Wind Variable Wind from NW
Gusts 19.0 mph

Today
High -- | Low -- °F
--% Chance of Precip.
Yesterday
High -- | Low -- °F
Precip. -- in
Pressure 29.86 in
Visibility 10.0 miles
Clouds Scattered Clouds 6500 ft
Overcast 9000 ft
Windchill -5 °F
Dew Point 5 °F
Humidity 80%
Rainfall in
Snow Depth Not available.
7:04 AM 5:19 PM
New Moon, 1% visible
METAR KDLL 091215Z AUTO 32010G16KT 10SM SCT065 OVC090 M13/M17 A2986 RMK AO2 T11321170
Pressure 29.86 in
Visibility 10.0 miles
Clouds Scattered Clouds 6500 ft
Overcast 9000 ft
Windchill -5 °F
Dew Point 5 °F
Humidity 80%
Rainfall in
Snow Depth Not available.
7:04 AM 5:19 PM
New Moon, 1% visible
METAR KDLL 091215Z AUTO 32010G16KT 10SM SCT065 OVC090 M13/M17 A2986 RMK AO2 T11321170

10-Day Weather Forecast

Almanac

Astronomy

Feb. 09, 2016 Rise Set
Actual Time
Civil Twilight
Nautical Twilight
Astronomical Twilight
Moon
Length of Visible Light
Length of Day
Tomorrow will be .
, % of the Moon is Illuminated

Today's Extremes

State Highs State Lows

Community

WunderPhotos

Upload Photos

1,891,589 photos uploaded!

WunderBlog® & News

Nearby

Air Quality

  Air Quality AQ Index Pollutant
Not available.

Snow Depth

Station Depth Elevation

Earthquake Activity

City Distance Mag. Time & Date
Minimum magnitude displayed is 2.5.

Coastal Water Temperatures

Place Temperature

Stations

Nearby Weather Stations

Station Location Temp. Windchill Dew Point Humidity Wind Precip. Elev Updated Type
                   

Watches & Warnings

There are currently no watches in effect.